Time;durP1;ratioP1;P1;durP2;ratioP2;P2;SDS_P1;SDS_P2;PMS_P1;PMS_P2;Temp;Humidity;BMP_temperature;BMP_pressure;BME280_temperature;BME280_humidity;BME280_pressure;Samples;Min_cycle;Max_cycle;Signal;HPM_P1;HPM_P2
2023/02/04 00:00:37;;;;;;;3.90;3.70;;;8.10;1.00;;;;;;5000507;28;20453;-80
2023/02/04 00:03:06;;;;;;;3.47;3.27;;;7.90;1.00;;;;;;4994904;28;20979;-80
2023/02/04 00:05:34;;;;;;;2.87;2.77;;;7.90;1.00;;;;;;5017750;28;20453;-79
2023/02/04 00:08:03;;;;;;;3.10;3.00;;;7.90;1.00;;;;;;5000416;28;20480;-80
2023/02/04 00:10:35;;;;;;;2.93;2.83;;;8.00;1.00;;;;;;4997237;28;20564;-81
2023/02/04 00:13:04;;;;;;;2.90;2.80;;;7.90;1.00;;;;;;4998887;28;20463;-81
2023/02/04 00:15:32;;;;;;;2.87;2.77;;;8.00;1.00;;;;;;4998668;28;20467;-81
2023/02/04 00:18:00;;;;;;;3.20;3.10;;;7.90;1.00;;;;;;4999015;28;20512;-80
2023/02/04 00:20:29;;;;;;;2.73;2.63;;;7.90;1.00;;;;;;4996952;28;20983;-81
2023/02/04 00:22:57;;;;;;;3.00;2.90;;;7.90;1.00;;;;;;4995257;28;22121;-79
2023/02/04 00:25:26;;;;;;;3.50;3.03;;;7.90;1.00;;;;;;4999506;28;20465;-80
2023/02/04 00:27:55;;;;;;;3.33;3.13;;;7.90;1.00;;;;;;5000038;28;20480;-79
2023/02/04 00:30:24;;;;;;;2.90;2.80;;;7.90;1.00;;;;;;5005559;28;22774;-78
2023/02/04 00:32:53;;;;;;;2.97;2.77;;;8.00;1.00;;;;;;4998286;28;20494;-79
2023/02/04 00:35:22;;;;;;;2.90;2.80;;;7.90;1.00;;;;;;4999164;28;20485;-80
2023/02/04 00:37:50;;;;;;;3.30;3.20;;;7.90;1.00;;;;;;4998203;28;20486;-80
2023/02/04 00:40:19;;;;;;;3.10;3.00;;;7.90;1.00;;;;;;4998325;28;20460;-80
2023/02/04 00:42:47;;;;;;;3.13;2.93;;;7.90;1.00;;;;;;4997052;28;20458;-80
2023/02/04 00:45:17;;;;;;;2.93;2.83;;;7.90;1.00;;;;;;5001418;28;20531;-79
2023/02/04 00:47:45;;;;;;;2.50;2.40;;;7.90;1.00;;;;;;5003157;28;20464;-80
2023/02/04 00:50:13;;;;;;;3.10;3.00;;;7.90;1.00;;;;;;5000040;28;21444;-81
2023/02/04 00:52:41;;;;;;;3.10;3.00;;;7.90;1.00;;;;;;4998767;28;20482;-79
2023/02/04 00:55:11;;;;;;;3.13;3.03;;;7.90;1.00;;;;;;4999487;28;20459;-80
2023/02/04 00:57:39;;;;;;;3.10;3.00;;;8.00;1.00;;;;;;5028729;28;20476;-80
2023/02/04 01:00:08;;;;;;;2.80;2.70;;;7.90;1.00;;;;;;5001168;28;20468;-81
2023/02/04 01:02:39;;;;;;;3.27;3.17;;;7.90;1.00;;;;;;4999392;28;20527;-78
2023/02/04 01:05:08;;;;;;;3.20;3.10;;;8.00;1.00;;;;;;4999760;28;20445;-80
2023/02/04 01:07:36;;;;;;;3.40;3.30;;;8.00;1.00;;;;;;4996229;28;20455;-81
2023/02/04 01:10:05;;;;;;;3.50;3.40;;;7.90;1.00;;;;;;4994824;28;20461;-80
2023/02/04 01:12:34;;;;;;;3.07;2.97;;;8.00;1.00;;;;;;4999653;28;20477;-80
2023/02/04 01:15:02;;;;;;;3.80;3.60;;;7.90;1.00;;;;;;4999937;28;20563;-81
2023/02/04 01:17:30;;;;;;;3.40;3.30;;;8.00;1.00;;;;;;4999325;28;20460;-81
2023/02/04 01:19:59;;;;;;;3.80;3.60;;;7.90;1.00;;;;;;4999530;28;20709;-81
2023/02/04 01:22:27;;;;;;;3.57;3.47;;;7.90;1.00;;;;;;4999033;28;20456;-79
2023/02/04 01:24:55;;;;;;;3.37;3.27;;;8.00;1.00;;;;;;4992155;28;20498;-80
2023/02/04 01:27:23;;;;;;;2.97;2.87;;;8.00;1.00;;;;;;4999166;28;20486;-80
2023/02/04 01:29:52;;;;;;;3.70;3.60;;;8.00;1.00;;;;;;4996865;28;20474;-78
2023/02/04 01:32:20;;;;;;;3.33;3.23;;;8.00;1.00;;;;;;4989820;28;20489;-78
2023/02/04 01:34:48;;;;;;;3.47;3.37;;;8.00;1.00;;;;;;4988572;28;20467;-79
2023/02/04 01:37:17;;;;;;;3.20;3.10;;;8.00;1.00;;;;;;4993789;28;20468;-81
2023/02/04 01:39:45;;;;;;;3.20;3.10;;;8.00;1.00;;;;;;4994427;28;20502;-79
2023/02/04 01:42:14;;;;;;;3.50;3.40;;;8.00;1.00;;;;;;4991329;28;20544;-79
2023/02/04 01:44:42;;;;;;;3.67;3.47;;;8.00;1.00;;;;;;4997742;28;20459;-79
2023/02/04 01:47:10;;;;;;;4.07;3.97;;;8.00;1.50;;;;;;4994410;28;20460;-78
2023/02/04 01:49:39;;;;;;;3.83;3.73;;;8.00;1.00;;;;;;5000375;28;20571;-80
2023/02/04 01:52:07;;;;;;;4.50;4.20;;;8.00;1.00;;;;;;5000140;28;20487;-81
2023/02/04 01:54:37;;;;;;;4.23;4.03;;;8.00;1.00;;;;;;5000958;28;20470;-78
2023/02/04 01:57:10;;;;;;;4.30;4.10;;;8.00;3.60;;;;;;5000225;28;20934;-79
2023/02/04 01:59:41;;;;;;;4.47;4.27;;;8.00;9.20;;;;;;5000497;28;20479;-78
2023/02/04 02:02:40;;;;;;;4.60;4.40;;;7.90;21.00;;;;;;4996606;28;20523;-77
2023/02/04 02:05:10;;;;;;;4.47;4.27;;;8.00;26.20;;;;;;5000023;28;20504;-76
2023/02/04 02:07:38;;;;;;;3.77;3.67;;;7.90;36.90;;;;;;5003550;28;20543;-76
2023/02/04 02:10:12;;;;;;;3.37;3.27;;;7.90;30.60;;;;;;4996825;28;20516;-76
2023/02/04 02:12:41;;;;;;;3.37;3.27;;;7.90;1.00;;;;;;5015436;28;20490;-78
2023/02/04 02:15:11;;;;;;;3.13;2.93;;;7.90;1.00;;;;;;5000320;28;20461;-77
2023/02/04 02:17:39;;;;;;;3.23;3.03;;;7.80;1.00;;;;;;4993451;28;21224;-78
2023/02/04 02:20:09;;;;;;;5.27;3.93;;;7.80;1.00;;;;;;4997931;28;21162;-78
2023/02/04 02:22:44;;;;;;;2.97;2.77;;;7.80;1.00;;;;;;4996937;28;20456;-77
2023/02/04 02:25:15;;;;;;;3.20;3.00;;;7.80;1.00;;;;;;4998469;28;20865;-78
2023/02/04 02:27:44;;;;;;;2.83;2.60;;;7.70;1.00;;;;;;4997561;28;20508;-79
2023/02/04 02:30:13;;;;;;;2.90;2.70;;;7.80;1.00;;;;;;4997080;28;20552;-78
2023/02/04 02:32:41;;;;;;;2.90;2.80;;;7.70;1.00;;;;;;4994389;28;20565;-80
2023/02/04 02:35:10;;;;;;;2.77;2.57;;;7.60;1.00;;;;;;4998591;28;20458;-78
2023/02/04 02:37:38;;;;;;;2.70;2.37;;;7.60;1.00;;;;;;4995426;28;20510;-78
2023/02/04 02:40:07;;;;;;;2.83;2.60;;;7.60;1.00;;;;;;4996174;28;20478;-78
2023/02/04 02:42:37;;;;;;;2.67;2.57;;;7.60;1.00;;;;;;4999618;28;20450;-79
2023/02/04 02:45:18;;;;;;;3.93;2.83;;;7.60;1.00;;;;;;4994266;28;20467;-79
2023/02/04 02:47:46;;;;;;;3.10;2.70;;;7.60;1.00;;;;;;4999200;28;20457;-78
2023/02/04 02:50:19;;;;;;;2.83;2.73;;;7.50;1.00;;;;;;4996488;28;20470;-77
2023/02/04 02:52:47;;;;;;;2.83;2.70;;;7.50;1.00;;;;;;4992305;28;20477;-77
2023/02/04 02:55:18;;;;;;;2.40;2.30;;;7.50;1.00;;;;;;4998912;28;20456;-78
2023/02/04 02:57:48;;;;;;;2.70;2.50;;;7.60;1.00;;;;;;4998335;28;20452;-79
2023/02/04 03:00:19;;;;;;;2.77;2.67;;;7.50;1.00;;;;;;5002499;28;20458;-79
2023/02/04 03:02:55;;;;;;;2.67;2.57;;;7.50;1.00;;;;;;4999513;28;21152;-79
2023/02/04 03:05:24;;;;;;;2.90;2.70;;;7.60;1.00;;;;;;5000675;28;20472;-78
2023/02/04 03:07:53;;;;;;;2.23;2.23;;;7.60;1.00;;;;;;5000582;28;20491;-77
2023/02/04 03:10:21;;;;;;;2.70;2.60;;;7.60;1.00;;;;;;5000018;28;20487;-78
2023/02/04 03:12:50;;;;;;;2.63;2.50;;;7.60;1.00;;;;;;4995288;28;20574;-78
2023/02/04 03:15:18;;;;;;;2.47;2.37;;;7.50;1.00;;;;;;5001941;28;20981;-76
2023/02/04 03:17:47;;;;;;;2.73;2.63;;;7.50;1.00;;;;;;5002815;28;20471;-79
2023/02/04 03:20:16;;;;;;;2.80;2.60;;;7.60;1.00;;;;;;4999505;28;20450;-77
2023/02/04 03:22:44;;;;;;;2.77;2.67;;;7.60;1.00;;;;;;5001048;28;20844;-80
2023/02/04 03:25:12;;;;;;;2.80;2.60;;;7.60;1.00;;;;;;4998132;28;20466;-78
2023/02/04 03:27:40;;;;;;;3.20;2.87;;;7.70;1.00;;;;;;5000487;28;20465;-79
2023/02/04 03:30:11;;;;;;;2.50;2.40;;;7.60;1.00;;;;;;5000163;28;20461;-77
2023/02/04 03:32:40;;;;;;;2.73;2.60;;;7.50;1.00;;;;;;4997336;28;20456;-78
2023/02/04 03:35:09;;;;;;;4.47;2.70;;;7.60;1.00;;;;;;5000424;28;20795;-79
2023/02/04 03:37:37;;;;;;;2.73;2.57;;;7.50;1.00;;;;;;4997996;28;20468;-78
2023/02/04 03:40:05;;;;;;;2.50;2.40;;;7.50;1.00;;;;;;4994887;28;20458;-79
2023/02/04 03:42:34;;;;;;;3.20;2.97;;;7.60;1.00;;;;;;4997107;28;20463;-78
2023/02/04 03:45:02;;;;;;;3.20;3.10;;;7.60;1.00;;;;;;4995132;28;20463;-78
2023/02/04 03:47:31;;;;;;;2.90;2.77;;;7.60;1.00;;;;;;4998152;28;20462;-78
2023/02/04 03:49:59;;;;;;;3.63;3.33;;;7.50;1.00;;;;;;4997414;28;20528;-78
2023/02/04 03:52:27;;;;;;;3.53;3.33;;;7.50;1.00;;;;;;4991822;28;21253;-79
2023/02/04 03:54:55;;;;;;;18.17;7.70;;;7.50;1.00;;;;;;4991543;28;20524;-78
2023/02/04 03:57:23;;;;;;;4.80;4.37;;;7.40;1.00;;;;;;4995108;28;20452;-79
2023/02/04 03:59:51;;;;;;;4.00;3.70;;;7.40;1.00;;;;;;4990717;28;20458;-77
2023/02/04 04:02:19;;;;;;;3.50;3.30;;;7.40;1.00;;;;;;4996879;28;20540;-79
2023/02/04 04:04:49;;;;;;;3.80;3.50;;;7.50;1.00;;;;;;4993470;28;20509;-79
2023/02/04 04:07:17;;;;;;;3.73;3.40;;;7.40;1.00;;;;;;4999073;28;20451;-78
2023/02/04 04:09:45;;;;;;;3.53;3.30;;;7.40;1.00;;;;;;4994064;28;21023;-78
2023/02/04 04:12:13;;;;;;;3.50;3.30;;;7.40;1.00;;;;;;4997465;28;20977;-78
2023/02/04 04:14:41;;;;;;;4.40;3.27;;;7.40;1.00;;;;;;4995213;28;20599;-78
2023/02/04 04:17:09;;;;;;;3.57;3.37;;;7.40;1.00;;;;;;4994410;28;20536;-78
2023/02/04 04:19:37;;;;;;;3.70;3.50;;;7.40;1.00;;;;;;4996417;28;20485;-78
2023/02/04 04:22:07;;;;;;;3.27;3.07;;;7.40;1.00;;;;;;5001013;28;20823;-79
2023/02/04 04:24:35;;;;;;;3.40;3.10;;;7.30;1.00;;;;;;4998438;28;20455;-78
2023/02/04 04:27:03;;;;;;;5.97;3.57;;;7.40;1.00;;;;;;4995681;28;20943;-79
2023/02/04 04:29:31;;;;;;;3.80;3.50;;;7.40;1.00;;;;;;4992953;28;20484;-78
2023/02/04 04:32:00;;;;;;;3.47;3.20;;;7.30;1.00;;;;;;4998335;28;20489;-78
2023/02/04 04:34:28;;;;;;;3.73;3.53;;;7.30;1.00;;;;;;5015435;28;20478;-77
2023/02/04 04:36:56;;;;;;;3.70;3.40;;;7.30;1.00;;;;;;4991595;28;20457;-78
2023/02/04 04:39:25;;;;;;;4.27;4.07;;;7.30;1.00;;;;;;5000036;28;20527;-78
2023/02/04 04:41:53;;;;;;;3.87;3.67;;;7.30;1.00;;;;;;4996215;28;20453;-77
2023/02/04 04:44:22;;;;;;;3.90;3.70;;;7.20;1.00;;;;;;5000045;28;20462;-78
2023/02/04 04:46:50;;;;;;;3.90;3.60;;;7.20;1.00;;;;;;4997661;28;20445;-78
2023/02/04 04:49:18;;;;;;;3.80;3.60;;;7.20;1.00;;;;;;4997033;28;20494;-78
2023/02/04 04:51:46;;;;;;;3.73;3.40;;;7.20;1.00;;;;;;5001803;28;20621;-78
2023/02/04 04:54:14;;;;;;;5.10;3.73;;;7.10;1.00;;;;;;5013311;28;20470;-80
2023/02/04 04:56:44;;;;;;;4.97;4.03;;;7.10;1.00;;;;;;5005567;28;20467;-79
2023/02/04 04:59:12;;;;;;;3.87;3.63;;;7.30;1.00;;;;;;5007097;28;20486;-80
2023/02/04 05:01:40;;;;;;;4.13;3.90;;;7.20;1.00;;;;;;5002468;28;20501;-80
2023/02/04 05:04:08;;;;;;;3.80;3.60;;;7.20;1.00;;;;;;5004369;28;20446;-80
2023/02/04 05:06:36;;;;;;;3.03;2.83;;;7.10;1.00;;;;;;5008994;28;20496;-82
2023/02/04 05:09:04;;;;;;;8.73;4.40;;;7.10;1.00;;;;;;5004914;28;20465;-80
2023/02/04 05:11:32;;;;;;;5.40;3.77;;;7.00;1.00;;;;;;5000875;28;20468;-79
2023/02/04 05:14:02;;;;;;;4.07;3.77;;;7.00;9.40;;;;;;5006475;28;20508;-82
2023/02/04 05:16:30;;;;;;;3.77;3.57;;;7.10;4.80;;;;;;5009337;28;20485;-82
2023/02/04 05:18:58;;;;;;;4.37;4.07;;;7.00;1.70;;;;;;5008641;28;20508;-84
2023/02/04 05:21:26;;;;;;;4.00;3.70;;;7.10;1.00;;;;;;5002114;28;20489;-80
2023/02/04 05:23:54;;;;;;;4.20;3.50;;;7.30;1.00;;;;;;4996707;28;20473;-82
2023/02/04 05:26:22;;;;;;;3.53;3.23;;;7.00;1.00;;;;;;5000102;28;20455;-80
2023/02/04 05:28:59;;;;;;;4.50;4.20;;;7.10;1.00;;;;;;5004117;28;20587;-81
2023/02/04 05:31:28;;;;;;;4.07;3.77;;;7.20;1.00;;;;;;5006489;28;20445;-80
2023/02/04 05:33:57;;;;;;;3.50;3.30;;;7.20;1.00;;;;;;4997252;28;20516;-83
2023/02/04 05:36:25;;;;;;;6.57;3.37;;;7.20;1.00;;;;;;5000725;28;20787;-80
2023/02/04 05:38:53;;;;;;;8.73;4.23;;;7.20;1.00;;;;;;5006323;28;20481;-80
2023/02/04 05:41:21;;;;;;;3.47;3.37;;;7.20;1.00;;;;;;5003716;28;20553;-79
2023/02/04 05:43:50;;;;;;;3.70;3.50;;;7.20;1.00;;;;;;4996613;28;20462;-79
2023/02/04 05:46:18;;;;;;;3.97;3.77;;;7.10;1.00;;;;;;5000836;28;20458;-80
2023/02/04 05:48:47;;;;;;;3.87;3.67;;;7.10;1.00;;;;;;5003975;28;20839;-79
2023/02/04 05:51:15;;;;;;;4.13;3.77;;;7.00;1.00;;;;;;5000701;28;20477;-80
2023/02/04 05:53:44;;;;;;;3.60;3.50;;;7.20;1.00;;;;;;4997319;28;20461;-79
2023/02/04 05:56:12;;;;;;;4.03;3.73;;;7.10;1.00;;;;;;4997754;28;20508;-79
2023/02/04 05:58:40;;;;;;;3.93;3.63;;;7.10;1.00;;;;;;4998911;28;20473;-80
2023/02/04 06:01:09;;;;;;;4.40;4.20;;;7.00;1.00;;;;;;4997662;28;20447;-80
2023/02/04 06:03:37;;;;;;;4.80;4.60;;;7.10;1.00;;;;;;5000130;28;20437;-81
2023/02/04 06:06:07;;;;;;;5.40;4.87;;;7.00;1.00;;;;;;4999655;28;20466;-80
2023/02/04 06:08:35;;;;;;;7.10;4.50;;;7.00;1.00;;;;;;5000526;28;20512;-80
2023/02/04 06:11:03;;;;;;;3.90;3.70;;;7.10;1.00;;;;;;4999901;28;21016;-81
2023/02/04 06:13:31;;;;;;;9.10;4.20;;;7.10;1.00;;;;;;5001242;28;20447;-79
2023/02/04 06:16:00;;;;;;;5.20;4.70;;;7.10;1.00;;;;;;4998340;28;20476;-80
2023/02/04 06:18:28;;;;;;;5.20;4.70;;;7.20;1.00;;;;;;4998006;28;20532;-80
2023/02/04 06:20:56;;;;;;;5.87;5.33;;;7.10;1.00;;;;;;4999669;28;20596;-81
2023/02/04 06:23:25;;;;;;;4.70;4.13;;;7.00;1.00;;;;;;4994922;28;20462;-82
2023/02/04 06:25:54;;;;;;;4.20;3.90;;;7.10;1.00;;;;;;4998459;28;20557;-80
2023/02/04 06:28:22;;;;;;;4.37;3.90;;;7.00;1.00;;;;;;4997377;28;21011;-79
2023/02/04 06:30:50;;;;;;;4.90;4.37;;;7.00;1.00;;;;;;4998205;28;20461;-83
2023/02/04 06:33:20;;;;;;;5.90;4.70;;;7.00;1.00;;;;;;4996846;28;20467;-82
2023/02/04 06:35:48;;;;;;;4.87;4.43;;;7.00;1.00;;;;;;5009450;28;20460;-81
2023/02/04 06:38:16;;;;;;;10.00;5.60;;;7.00;1.00;;;;;;5001189;28;20481;-80
2023/02/04 06:40:48;;;;;;;5.20;4.80;;;7.10;1.00;;;;;;5007448;28;20498;-82
2023/02/04 06:43:16;;;;;;;5.67;4.50;;;7.10;1.00;;;;;;5006591;28;20434;-82
2023/02/04 06:45:44;;;;;;;6.10;5.57;;;7.00;1.00;;;;;;5007575;28;20458;-83
2023/02/04 06:48:12;;;;;;;6.07;5.50;;;6.90;1.00;;;;;;5009736;28;20974;-82
2023/02/04 06:50:41;;;;;;;5.70;5.23;;;6.90;1.00;;;;;;4998355;28;20458;-82
2023/02/04 06:53:09;;;;;;;7.70;5.30;;;6.80;1.00;;;;;;5007727;28;21008;-81
2023/02/04 06:55:37;;;;;;;6.03;4.93;;;6.90;1.00;;;;;;5003954;28;20477;-81
2023/02/04 06:58:06;;;;;;;5.30;5.00;;;6.90;1.00;;;;;;5015090;28;20821;-80
2023/02/04 07:00:34;;;;;;;9.93;6.30;;;6.80;1.00;;;;;;5003241;28;20458;-81
2023/02/04 07:03:03;;;;;;;13.00;6.10;;;7.00;1.00;;;;;;5004417;28;20688;-81
2023/02/04 07:05:31;;;;;;;7.37;6.20;;;7.00;1.00;;;;;;5004475;28;20537;-80
2023/02/04 07:07:59;;;;;;;5.40;4.90;;;7.20;1.00;;;;;;5005817;28;20474;-80
2023/02/04 07:10:27;;;;;;;8.73;5.70;;;7.10;1.00;;;;;;5001894;28;20462;-80
2023/02/04 07:12:55;;;;;;;6.77;5.50;;;7.00;1.00;;;;;;4998892;28;21021;-79
2023/02/04 07:15:25;;;;;;;6.70;5.97;;;6.90;1.00;;;;;;5005545;28;20990;-79
2023/02/04 07:17:53;;;;;;;12.20;6.07;;;6.90;1.00;;;;;;5003992;28;20457;-80
2023/02/04 07:20:21;;;;;;;8.23;5.90;;;6.80;1.00;;;;;;5006428;28;20488;-82
2023/02/04 07:22:49;;;;;;;11.87;6.70;;;6.80;1.00;;;;;;5009326;28;20462;-81
2023/02/04 07:25:17;;;;;;;9.80;6.67;;;6.90;1.00;;;;;;5007638;28;20449;-80
2023/02/04 07:27:46;;;;;;;6.73;5.90;;;6.80;1.00;;;;;;5003415;28;21019;-81
2023/02/04 07:30:14;;;;;;;10.13;6.33;;;6.90;1.00;;;;;;5002948;28;20458;-80
2023/02/04 07:32:44;;;;;;;11.50;6.73;;;6.90;1.00;;;;;;5003465;28;20457;-82
2023/02/04 07:35:12;;;;;;;6.43;5.83;;;6.80;1.00;;;;;;5008955;28;20993;-80
2023/02/04 07:37:40;;;;;;;9.03;6.03;;;6.90;1.00;;;;;;4997921;28;20973;-76
2023/02/04 07:40:10;;;;;;;11.30;6.40;;;6.90;1.00;;;;;;5002687;28;20450;-81
2023/02/04 07:42:38;;;;;;;6.13;5.53;;;6.90;1.00;;;;;;5000241;28;21004;-80
2023/02/04 07:45:07;;;;;;;9.23;8.33;;;7.00;1.00;;;;;;5000713;28;20497;-79
2023/02/04 07:47:35;;;;;;;13.30;7.37;;;6.90;1.00;;;;;;5005974;28;20454;-82
2023/02/04 07:50:05;;;;;;;9.37;6.53;;;6.90;1.00;;;;;;5007482;28;20449;-81
2023/02/04 07:52:33;;;;;;;12.63;6.53;;;6.90;1.00;;;;;;5005271;28;20815;-81
2023/02/04 07:55:01;;;;;;;7.43;6.53;;;6.90;1.00;;;;;;5001007;28;20457;-76
2023/02/04 07:57:29;;;;;;;10.77;6.40;;;6.80;1.00;;;;;;5001873;28;20459;-77
2023/02/04 07:59:58;;;;;;;13.30;7.75;;;6.90;1.00;;;;;;5001724;28;20440;-81
2023/02/04 08:02:26;;;;;;;15.27;9.60;;;6.80;1.00;;;;;;5009445;28;20451;-80
2023/02/04 08:04:55;;;;;;;17.10;9.30;;;6.70;1.00;;;;;;5000191;28;20670;-79
2023/02/04 08:07:24;;;;;;;21.07;11.00;;;6.90;1.00;;;;;;5002851;28;20457;-81
2023/02/04 08:09:53;;;;;;;21.70;14.10;;;6.90;1.00;;;;;;5003096;28;20478;-80
2023/02/04 08:12:21;;;;;;;15.60;12.57;;;7.00;1.00;;;;;;5008004;28;20454;-82
2023/02/04 08:14:49;;;;;;;16.20;9.07;;;7.00;1.00;;;;;;5001273;28;20925;-80
2023/02/04 08:17:17;;;;;;;12.60;9.30;;;7.00;1.00;;;;;;5001844;28;20497;-80
2023/02/04 08:19:45;;;;;;;19.23;9.70;;;6.90;1.00;;;;;;4999355;28;20985;-80
2023/02/04 08:22:13;;;;;;;13.97;9.63;;;6.90;1.00;;;;;;5001531;28;21205;-80
2023/02/04 08:24:42;;;;;;;9.77;7.80;;;7.00;1.00;;;;;;5002611;28;20450;-80
2023/02/04 08:27:11;;;;;;;9.73;8.00;;;7.10;1.00;;;;;;4999949;28;20443;-80
2023/02/04 08:29:39;;;;;;;9.03;7.23;;;7.10;1.00;;;;;;5000272;28;20479;-80
2023/02/04 08:32:08;;;;;;;12.70;7.20;;;7.20;1.00;;;;;;4996284;28;21067;-81
2023/02/04 08:34:37;;;;;;;9.47;6.47;;;7.20;1.00;;;;;;5000382;28;20458;-81
2023/02/04 08:37:05;;;;;;;8.63;6.90;;;7.20;1.00;;;;;;4998816;28;20470;-80
2023/02/04 08:39:33;;;;;;;11.60;7.03;;;7.10;1.00;;;;;;5002530;28;20477;-81
2023/02/04 08:42:03;;;;;;;10.30;6.97;;;7.20;1.00;;;;;;5006529;28;20461;-82
2023/02/04 08:44:31;;;;;;;11.30;7.67;;;7.40;1.00;;;;;;5000796;28;20465;-80
2023/02/04 08:46:59;;;;;;;8.00;7.03;;;7.30;1.00;;;;;;5005449;28;20461;-83
2023/02/04 08:49:27;;;;;;;12.53;6.93;;;7.40;1.00;;;;;;5006665;28;20465;-80
2023/02/04 08:51:55;;;;;;;10.63;7.20;;;7.40;1.00;;;;;;5000992;28;20542;-80
2023/02/04 08:54:25;;;;;;;12.03;6.67;;;7.40;99.90;;;;;;4998838;28;20455;-82
2023/02/04 08:56:53;;;;;;;13.20;6.90;;;7.30;99.90;;;;;;5003868;28;20488;-81
2023/02/04 08:59:23;;;;;;;7.77;6.30;;;7.40;99.90;;;;;;5001754;28;20853;-82
2023/02/04 09:01:51;;;;;;;10.53;7.30;;;7.50;1.00;;;;;;5004618;28;20462;-81
2023/02/04 09:04:20;;;;;;;6.93;6.33;;;7.60;1.00;;;;;;4999614;28;20510;-82
2023/02/04 09:06:48;;;;;;;12.83;7.00;;;7.70;99.90;;;;;;5003385;28;20458;-81
2023/02/04 09:09:17;;;;;;;7.53;6.63;;;7.80;99.90;;;;;;5001793;28;20701;-82
2023/02/04 09:11:45;;;;;;;10.47;7.00;;;8.10;99.90;;;;;;5000753;28;20846;-82
2023/02/04 09:14:14;;;;;;;7.20;6.60;;;8.50;99.90;;;;;;5001771;28;20486;-81
2023/02/04 09:16:44;;;;;;;12.57;7.70;;;9.10;29.10;;;;;;5003684;28;20468;-82
2023/02/04 09:19:15;;;;;;;20.40;10.63;;;9.20;94.00;;;;;;5001737;28;20549;-82
2023/02/04 09:21:43;;;;;;;10.30;8.00;;;9.30;99.90;;;;;;5004072;28;21082;-82
2023/02/04 09:24:11;;;;;;;9.10;6.97;;;9.50;17.90;;;;;;5004923;28;20454;-82
2023/02/04 09:26:39;;;;;;;9.43;6.77;;;9.50;99.90;;;;;;5004894;28;20492;-81
2023/02/04 09:29:07;;;;;;;10.00;6.43;;;9.50;1.00;;;;;;5002055;28;20470;-81
2023/02/04 09:31:36;;;;;;;8.00;4.90;;;9.50;99.90;;;;;;4997490;28;20461;-82
2023/02/04 09:34:06;;;;;;;7.30;6.50;;;9.40;1.00;;;;;;4996425;28;20457;-82
2023/02/04 09:36:36;;;;;;;8.30;6.43;;;9.40;1.00;;;;;;4996531;28;20544;-82
2023/02/04 09:39:05;;;;;;;8.03;6.07;;;9.30;29.10;;;;;;5004436;28;20503;-81
2023/02/04 09:41:34;;;;;;;10.63;8.10;;;9.10;99.90;;;;;;5001013;28;20832;-81
2023/02/04 09:44:04;;;;;;;10.30;5.60;;;9.00;99.90;;;;;;5011684;28;20466;-80
2023/02/04 09:46:33;;;;;;;6.83;5.60;;;8.90;99.90;;;;;;5002021;28;20452;-83
2023/02/04 09:49:02;;;;;;;11.23;5.60;;;8.80;99.90;;;;;;4999537;28;21235;-82
2023/02/04 09:51:34;;;;;;;12.03;5.47;;;8.70;1.00;;;;;;4999907;28;20464;-83
2023/02/04 09:54:08;;;;;;;9.50;5.17;;;8.60;99.90;;;;;;4994861;28;20450;-82
2023/02/04 09:56:37;;;;;;;12.90;5.50;;;8.60;86.10;;;;;;4999753;28;20476;-82
2023/02/04 09:59:06;;;;;;;4.77;4.30;;;8.50;99.90;;;;;;4996038;28;20530;-84
2023/02/04 10:01:34;;;;;;;8.77;5.13;;;8.40;99.90;;;;;;5000349;28;20474;-82
2023/02/04 10:04:03;;;;;;;10.63;4.70;;;8.50;99.90;;;;;;4998792;28;20817;-80
2023/02/04 10:06:33;;;;;;;4.87;4.43;;;8.60;1.00;;;;;;5006364;28;20459;-83
2023/02/04 10:09:02;;;;;;;5.70;4.60;;;8.90;99.90;;;;;;5026812;28;20569;-83
2023/02/04 10:11:32;;;;;;;10.30;5.63;;;8.70;1.00;;;;;;5007994;28;20471;-83
2023/02/04 10:14:00;;;;;;;7.50;6.20;;;8.60;1.00;;;;;;5004089;28;20451;-83
2023/02/04 10:16:31;;;;;;;7.47;6.67;;;8.60;1.00;;;;;;5004605;28;20474;-82
2023/02/04 10:19:03;;;;;;;7.10;4.83;;;8.80;1.00;;;;;;5004755;28;20585;-82
2023/02/04 10:21:35;;;;;;;10.43;4.82;;;9.20;1.00;;;;;;4994321;28;20490;-79
2023/02/04 10:24:10;;;;;;;9.40;4.03;;;9.60;1.00;;;;;;5001655;28;20213;-80
2023/02/04 10:26:38;;;;;;;14.70;4.85;;;9.70;99.90;;;;;;4999496;28;21666;-81
2023/02/04 10:29:12;;;;;;;4.60;3.40;;;9.60;99.90;;;;;;5001107;28;20228;-82
2023/02/04 10:31:43;;;;;;;7.67;4.10;;;9.30;19.40;;;;;;4996980;28;20457;-77
2023/02/04 10:34:14;;;;;;;4.27;3.53;;;9.20;1.00;;;;;;4991275;28;20514;-75
2023/02/04 10:36:48;;;;;;;8.87;3.50;;;9.00;36.80;;;;;;4994859;28;20490;-79
2023/02/04 10:39:19;;;;;;;6.40;3.80;;;8.90;99.90;;;;;;4998636;28;20488;-78
2023/02/04 10:41:49;;;;;;;11.33;4.17;;;8.80;99.90;;;;;;4998197;28;20460;-81
2023/02/04 10:44:19;;;;;;;9.97;3.57;;;8.80;99.90;;;;;;4993621;28;20449;-80
2023/02/04 10:46:48;;;;;;;4.63;3.50;;;8.80;98.60;;;;;;4999843;28;20966;-80
2023/02/04 10:49:21;;;;;;;5.43;3.70;;;8.80;34.10;;;;;;4996944;28;20511;-82
2023/02/04 10:51:52;;;;;;;5.13;3.10;;;8.70;1.00;;;;;;4993373;28;20510;-80
2023/02/04 10:54:32;;;;;;;10.70;3.50;;;9.10;10.80;;;;;;4992811;28;20555;-82
2023/02/04 10:57:07;;;;;;;10.00;3.67;;;9.00;1.00;;;;;;4998043;28;20519;-81
2023/02/04 10:59:36;;;;;;;2.97;2.67;;;9.10;1.00;;;;;;5005146;28;20565;-81
2023/02/04 11:02:31;;;;;;;7.73;2.87;;;8.90;1.00;;;;;;4998809;28;20460;-82
2023/02/04 11:05:00;;;;;;;7.00;2.67;;;8.80;1.00;;;;;;4999305;28;21315;-82
2023/02/04 11:07:30;;;;;;;7.10;3.30;;;8.80;1.00;;;;;;5000745;28;21100;-82
2023/02/04 11:09:58;;;;;;;7.77;4.97;;;8.70;7.80;;;;;;4996462;28;20491;-80
2023/02/04 11:12:38;;;;;;;5.83;3.10;;;8.60;1.00;;;;;;4997217;28;20457;-78
2023/02/04 11:15:08;;;;;;;6.30;2.93;;;8.60;24.90;;;;;;4999454;28;20804;-78
2023/02/04 11:17:36;;;;;;;4.07;3.40;;;8.60;1.00;;;;;;4999948;28;20850;-80
2023/02/04 11:20:14;;;;;;;5.93;2.70;;;8.70;1.00;;;;;;4999855;28;20477;-80
2023/02/04 11:22:48;;;;;;;6.70;3.50;;;8.80;1.00;;;;;;4997370;28;20955;-78
2023/02/04 11:25:32;;;;;;;7.30;3.60;;;8.80;1.00;;;;;;4998974;28;21259;-81
2023/02/04 11:28:12;;;;;;;7.13;4.27;;;8.80;2.30;;;;;;4991378;28;20524;-80
2023/02/04 11:30:41;;;;;;;9.47;4.40;;;8.80;50.80;;;;;;4994486;28;20479;-80
2023/02/04 11:33:23;;;;;;;7.43;3.47;;;8.50;1.00;;;;;;4997400;28;20465;-80
2023/02/04 11:36:03;;;;;;;8.37;3.30;;;8.70;43.30;;;;;;4997719;28;20459;-81
2023/02/04 11:38:33;;;;;;;4.97;2.33;;;8.60;1.00;;;;;;5000195;28;20494;-80
2023/02/04 11:41:02;;;;;;;12.83;4.00;;;8.80;1.00;;;;;;4996047;28;21363;-79
2023/02/04 11:43:34;;;;;;;5.50;3.10;;;8.90;1.00;;;;;;4992585;28;20492;-80
2023/02/04 11:46:12;;;;;;;4.10;2.67;;;8.90;1.00;;;;;;4995572;28;20463;-78
2023/02/04 11:48:41;;;;;;;7.47;3.23;;;8.90;1.00;;;;;;4989540;28;20471;-79
2023/02/04 11:51:14;;;;;;;8.63;3.40;;;8.90;1.00;;;;;;4993717;28;20461;-79
2023/02/04 11:53:43;;;;;;;5.10;3.07;;;8.90;11.60;;;;;;4997198;28;20600;-78
2023/02/04 11:56:17;;;;;;;8.17;3.10;;;8.90;1.00;;;;;;5003369;28;20461;-81
2023/02/04 11:58:48;;;;;;;4.47;2.63;;;8.80;1.00;;;;;;4999820;28;20476;-81
2023/02/04 12:01:20;;;;;;;4.53;2.90;;;8.80;1.00;;;;;;4994464;28;20460;-81
2023/02/04 12:03:50;;;;;;;5.53;2.70;;;8.80;1.00;;;;;;4995692;28;20564;-79
2023/02/04 12:06:22;;;;;;;9.30;3.77;;;8.70;1.00;;;;;;4997785;28;20471;-79
2023/02/04 12:08:51;;;;;;;10.57;2.53;;;8.70;1.00;;;;;;4999093;28;20465;-80
2023/02/04 12:11:29;;;;;;;6.87;3.00;;;8.60;1.00;;;;;;4995400;28;21206;-80
2023/02/04 12:13:59;;;;;;;8.90;2.77;;;8.60;1.00;;;;;;4994864;28;20481;-78
2023/02/04 12:16:27;;;;;;;8.80;3.30;;;8.60;1.00;;;;;;4997968;28;20448;-80
2023/02/04 12:18:56;;;;;;;8.17;2.53;;;8.60;1.00;;;;;;4992444;28;20494;-79
2023/02/04 12:21:24;;;;;;;6.30;3.37;;;8.60;1.00;;;;;;4999335;28;20543;-81
2023/02/04 12:23:53;;;;;;;4.80;3.93;;;8.70;1.00;;;;;;4991451;28;20595;-79
2023/02/04 12:26:21;;;;;;;11.10;3.10;;;8.60;1.00;;;;;;4994582;28;20530;-80
2023/02/04 12:28:49;;;;;;;5.70;2.83;;;8.60;1.00;;;;;;4994111;28;20559;-80
2023/02/04 12:31:18;;;;;;;6.93;3.73;;;8.60;1.00;;;;;;4993847;28;20488;-79
2023/02/04 12:33:46;;;;;;;4.60;2.53;;;8.70;1.00;;;;;;4997118;28;20461;-79
2023/02/04 12:36:14;;;;;;;5.40;2.73;;;8.70;1.00;;;;;;4994748;28;20452;-80
2023/02/04 12:38:42;;;;;;;9.10;3.80;;;8.60;1.00;;;;;;4996048;28;20496;-81
2023/02/04 12:41:12;;;;;;;11.90;2.87;;;8.70;1.00;;;;;;4993957;28;20520;-81
2023/02/04 12:43:40;;;;;;;2.77;2.30;;;8.80;1.00;;;;;;4996995;28;20475;-80
2023/02/04 12:46:08;;;;;;;4.73;2.53;;;8.80;1.00;;;;;;4992881;28;21256;-81
2023/02/04 12:48:39;;;;;;;10.00;3.27;;;8.80;1.00;;;;;;4997055;28;20469;-81
2023/02/04 12:51:08;;;;;;;3.63;2.37;;;8.90;1.00;;;;;;4991205;28;20539;-80
2023/02/04 12:53:36;;;;;;;6.23;2.40;;;9.00;1.00;;;;;;4990034;28;20464;-81
2023/02/04 12:56:05;;;;;;;6.33;3.13;;;9.00;1.00;;;;;;4998629;28;20492;-80
2023/02/04 12:58:34;;;;;;;4.77;2.30;;;9.10;1.00;;;;;;5003206;28;20585;-81
2023/02/04 13:01:02;;;;;;;7.07;2.08;;;9.20;1.00;;;;;;4996194;28;20462;-80
2023/02/04 13:03:31;;;;;;;6.10;2.70;;;9.30;1.00;;;;;;5001075;28;21007;-80
2023/02/04 13:05:59;;;;;;;6.67;2.40;;;9.30;99.90;;;;;;4995897;28;20909;-79
2023/02/04 13:08:28;;;;;;;5.47;2.40;;;9.20;99.90;;;;;;4993782;28;20512;-80
2023/02/04 13:10:56;;;;;;;3.93;2.00;;;9.30;99.90;;;;;;4994794;28;20526;-79
2023/02/04 13:13:24;;;;;;;3.50;1.97;;;9.40;99.90;;;;;;4999252;28;20528;-80
2023/02/04 13:15:53;;;;;;;3.90;2.17;;;9.40;99.90;;;;;;4997845;28;20514;-80